sensor_id;sensor_type;location;lat;lon;timestamp;temperature;humidity
74101;DHT22;62462;52.530;21.682;2023-04-03T00:01:00;5.10;58.20
74101;DHT22;62462;52.530;21.682;2023-04-03T00:03:26;5.10;58.00
74101;DHT22;62462;52.530;21.682;2023-04-03T00:05:52;5.10;58.10
74101;DHT22;62462;52.530;21.682;2023-04-03T00:08:19;5.00;57.50
74101;DHT22;62462;52.530;21.682;2023-04-03T00:10:45;5.00;57.90
74101;DHT22;62462;52.530;21.682;2023-04-03T00:13:11;4.90;58.10
74101;DHT22;62462;52.530;21.682;2023-04-03T00:15:38;4.90;57.80
74101;DHT22;62462;52.530;21.682;2023-04-03T00:18:05;4.80;57.70
74101;DHT22;62462;52.530;21.682;2023-04-03T00:20:31;4.90;57.90
74101;DHT22;62462;52.530;21.682;2023-04-03T00:22:57;4.80;57.70
74101;DHT22;62462;52.530;21.682;2023-04-03T00:25:23;4.80;57.90
74101;DHT22;62462;52.530;21.682;2023-04-03T00:27:49;4.80;57.80
74101;DHT22;62462;52.530;21.682;2023-04-03T00:30:17;4.70;57.70
74101;DHT22;62462;52.530;21.682;2023-04-03T00:32:44;4.70;58.10
74101;DHT22;62462;52.530;21.682;2023-04-03T00:35:10;4.70;57.90
74101;DHT22;62462;52.530;21.682;2023-04-03T00:37:36;4.70;58.00
74101;DHT22;62462;52.530;21.682;2023-04-03T00:40:03;4.60;58.00
74101;DHT22;62462;52.530;21.682;2023-04-03T00:42:29;4.60;57.90
74101;DHT22;62462;52.530;21.682;2023-04-03T00:47:21;4.60;58.20
74101;DHT22;62462;52.530;21.682;2023-04-03T00:49:49;4.50;57.80
74101;DHT22;62462;52.530;21.682;2023-04-03T00:52:19;4.50;58.20
74101;DHT22;62462;52.530;21.682;2023-04-03T00:54:47;4.50;58.30
74101;DHT22;62462;52.530;21.682;2023-04-03T00:57:15;4.50;57.90
74101;DHT22;62462;52.530;21.682;2023-04-03T00:59:53;4.50;57.90
74101;DHT22;62462;52.530;21.682;2023-04-03T01:02:20;4.40;57.90
74101;DHT22;62462;52.530;21.682;2023-04-03T01:04:46;4.40;58.30
74101;DHT22;62462;52.530;21.682;2023-04-03T01:07:39;4.40;58.30
74101;DHT22;62462;52.530;21.682;2023-04-03T01:10:10;4.40;58.10
74101;DHT22;62462;52.530;21.682;2023-04-03T01:12:40;4.40;58.30
74101;DHT22;62462;52.530;21.682;2023-04-03T01:15:19;4.40;58.10
74101;DHT22;62462;52.530;21.682;2023-04-03T01:17:51;4.40;57.80
74101;DHT22;62462;52.530;21.682;2023-04-03T01:25:42;4.30;58.30
74101;DHT22;62462;52.530;21.682;2023-04-03T01:28:14;4.20;57.90
74101;DHT22;62462;52.530;21.682;2023-04-03T01:33:37;4.20;58.00
74101;DHT22;62462;52.530;21.682;2023-04-03T01:36:04;4.20;58.40
74101;DHT22;62462;52.530;21.682;2023-04-03T01:38:30;4.20;58.30
74101;DHT22;62462;52.530;21.682;2023-04-03T01:40:57;4.30;58.20
74101;DHT22;62462;52.530;21.682;2023-04-03T01:43:22;4.30;58.40
74101;DHT22;62462;52.530;21.682;2023-04-03T01:45:49;4.20;58.00
74101;DHT22;62462;52.530;21.682;2023-04-03T01:48:16;4.20;57.90
74101;DHT22;62462;52.530;21.682;2023-04-03T01:50:42;4.10;57.90
74101;DHT22;62462;52.530;21.682;2023-04-03T01:53:08;4.10;58.20
74101;DHT22;62462;52.530;21.682;2023-04-03T01:55:33;4.10;57.90
74101;DHT22;62462;52.530;21.682;2023-04-03T01:57:59;4.10;58.20
74101;DHT22;62462;52.530;21.682;2023-04-03T02:00:25;4.10;57.90
74101;DHT22;62462;52.530;21.682;2023-04-03T02:02:52;4.00;58.00
74101;DHT22;62462;52.530;21.682;2023-04-03T02:05:18;3.90;58.40
74101;DHT22;62462;52.530;21.682;2023-04-03T02:07:44;3.90;58.70
74101;DHT22;62462;52.530;21.682;2023-04-03T02:10:10;3.90;58.30
74101;DHT22;62462;52.530;21.682;2023-04-03T02:12:36;3.90;58.60
74101;DHT22;62462;52.530;21.682;2023-04-03T02:15:02;3.90;58.10
74101;DHT22;62462;52.530;21.682;2023-04-03T02:17:28;3.90;58.00
74101;DHT22;62462;52.530;21.682;2023-04-03T02:19:54;3.80;58.40
74101;DHT22;62462;52.530;21.682;2023-04-03T02:22:20;3.80;58.20
74101;DHT22;62462;52.530;21.682;2023-04-03T02:24:46;3.80;58.40
74101;DHT22;62462;52.530;21.682;2023-04-03T02:27:12;3.80;58.40
74101;DHT22;62462;52.530;21.682;2023-04-03T02:29:38;3.80;58.60
74101;DHT22;62462;52.530;21.682;2023-04-03T02:32:04;3.80;58.70
74101;DHT22;62462;52.530;21.682;2023-04-03T02:34:30;3.80;58.50
74101;DHT22;62462;52.530;21.682;2023-04-03T02:36:56;3.80;58.40
74101;DHT22;62462;52.530;21.682;2023-04-03T02:39:21;3.70;58.40
74101;DHT22;62462;52.530;21.682;2023-04-03T02:41:47;3.70;58.10
74101;DHT22;62462;52.530;21.682;2023-04-03T02:44:13;3.70;58.60
74101;DHT22;62462;52.530;21.682;2023-04-03T02:46:39;3.60;58.80
74101;DHT22;62462;52.530;21.682;2023-04-03T02:49:05;3.60;58.60
74101;DHT22;62462;52.530;21.682;2023-04-03T02:51:31;3.60;58.90
74101;DHT22;62462;52.530;21.682;2023-04-03T02:53:57;3.60;58.60
74101;DHT22;62462;52.530;21.682;2023-04-03T02:56:23;3.50;58.70
74101;DHT22;62462;52.530;21.682;2023-04-03T02:58:49;3.50;59.00
74101;DHT22;62462;52.530;21.682;2023-04-03T03:01:15;3.50;59.20
74101;DHT22;62462;52.530;21.682;2023-04-03T03:03:41;3.50;59.30
74101;DHT22;62462;52.530;21.682;2023-04-03T03:06:10;3.50;59.20
74101;DHT22;62462;52.530;21.682;2023-04-03T03:08:36;3.60;59.20
74101;DHT22;62462;52.530;21.682;2023-04-03T03:11:03;3.60;59.20
74101;DHT22;62462;52.530;21.682;2023-04-03T03:13:29;3.60;58.70
74101;DHT22;62462;52.530;21.682;2023-04-03T03:15:55;3.50;59.10
74101;DHT22;62462;52.530;21.682;2023-04-03T03:18:22;3.50;59.40
74101;DHT22;62462;52.530;21.682;2023-04-03T03:20:52;3.50;59.30
74101;DHT22;62462;52.530;21.682;2023-04-03T03:23:18;3.40;59.40
74101;DHT22;62462;52.530;21.682;2023-04-03T03:25:44;3.40;59.60
74101;DHT22;62462;52.530;21.682;2023-04-03T03:28:10;3.30;59.80
74101;DHT22;62462;52.530;21.682;2023-04-03T03:30:37;3.30;59.70
74101;DHT22;62462;52.530;21.682;2023-04-03T03:33:03;3.30;59.90
74101;DHT22;62462;52.530;21.682;2023-04-03T03:35:29;3.30;60.10
74101;DHT22;62462;52.530;21.682;2023-04-03T03:37:55;3.30;60.30
74101;DHT22;62462;52.530;21.682;2023-04-03T03:40:21;3.30;60.10
74101;DHT22;62462;52.530;21.682;2023-04-03T03:42:47;3.30;60.40
74101;DHT22;62462;52.530;21.682;2023-04-03T03:45:12;3.30;60.50
74101;DHT22;62462;52.530;21.682;2023-04-03T03:47:38;3.30;60.30
74101;DHT22;62462;52.530;21.682;2023-04-03T03:50:06;3.20;60.20
74101;DHT22;62462;52.530;21.682;2023-04-03T03:52:32;3.20;60.50
74101;DHT22;62462;52.530;21.682;2023-04-03T03:54:57;3.20;60.60
74101;DHT22;62462;52.530;21.682;2023-04-03T03:57:23;3.10;60.50
74101;DHT22;62462;52.530;21.682;2023-04-03T03:59:50;3.10;60.80
74101;DHT22;62462;52.530;21.682;2023-04-03T04:02:18;3.10;60.90
74101;DHT22;62462;52.530;21.682;2023-04-03T04:04:43;3.10;60.80
74101;DHT22;62462;52.530;21.682;2023-04-03T04:07:09;3.10;60.90
74101;DHT22;62462;52.530;21.682;2023-04-03T04:09:35;3.00;61.10
74101;DHT22;62462;52.530;21.682;2023-04-03T04:12:01;3.00;61.20
74101;DHT22;62462;52.530;21.682;2023-04-03T04:14:28;2.90;61.30
74101;DHT22;62462;52.530;21.682;2023-04-03T04:16:54;2.90;61.50
74101;DHT22;62462;52.530;21.682;2023-04-03T04:19:19;2.90;61.50
74101;DHT22;62462;52.530;21.682;2023-04-03T04:21:45;2.80;61.60
74101;DHT22;62462;52.530;21.682;2023-04-03T04:24:11;2.80;61.70
74101;DHT22;62462;52.530;21.682;2023-04-03T04:26:37;2.80;61.70
74101;DHT22;62462;52.530;21.682;2023-04-03T04:29:03;2.80;61.70
74101;DHT22;62462;52.530;21.682;2023-04-03T04:31:29;2.80;61.80
74101;DHT22;62462;52.530;21.682;2023-04-03T04:33:55;2.80;61.60
74101;DHT22;62462;52.530;21.682;2023-04-03T04:36:20;2.80;61.80
74101;DHT22;62462;52.530;21.682;2023-04-03T04:38:46;2.80;62.00
74101;DHT22;62462;52.530;21.682;2023-04-03T04:41:12;2.90;61.70
74101;DHT22;62462;52.530;21.682;2023-04-03T04:43:38;2.90;61.70
74101;DHT22;62462;52.530;21.682;2023-04-03T04:46:09;2.90;61.80
74101;DHT22;62462;52.530;21.682;2023-04-03T04:48:37;2.90;61.70
74101;DHT22;62462;52.530;21.682;2023-04-03T04:51:03;3.00;61.90
74101;DHT22;62462;52.530;21.682;2023-04-03T04:53:29;3.00;61.80
74101;DHT22;62462;52.530;21.682;2023-04-03T04:55:55;3.00;61.50
74101;DHT22;62462;52.530;21.682;2023-04-03T04:58:21;3.00;62.20
74101;DHT22;62462;52.530;21.682;2023-04-03T05:00:47;3.00;62.20
74101;DHT22;62462;52.530;21.682;2023-04-03T05:03:13;3.00;61.70
74101;DHT22;62462;52.530;21.682;2023-04-03T05:05:39;3.00;62.10
74101;DHT22;62462;52.530;21.682;2023-04-03T05:08:05;3.10;61.60
74101;DHT22;62462;52.530;21.682;2023-04-03T05:10:31;3.10;61.10
74101;DHT22;62462;52.530;21.682;2023-04-03T05:12:57;3.20;61.50
74101;DHT22;62462;52.530;21.682;2023-04-03T05:15:23;3.20;60.80
74101;DHT22;62462;52.530;21.682;2023-04-03T05:17:49;3.30;60.90
74101;DHT22;62462;52.530;21.682;2023-04-03T05:20:17;3.40;60.60
74101;DHT22;62462;52.530;21.682;2023-04-03T05:22:43;3.40;60.50
74101;DHT22;62462;52.530;21.682;2023-04-03T05:25:09;3.50;60.20
74101;DHT22;62462;52.530;21.682;2023-04-03T05:27:35;3.50;60.00
74101;DHT22;62462;52.530;21.682;2023-04-03T05:30:01;3.50;60.00
74101;DHT22;62462;52.530;21.682;2023-04-03T05:32:27;3.50;60.00
74101;DHT22;62462;52.530;21.682;2023-04-03T05:34:53;3.60;60.20
74101;DHT22;62462;52.530;21.682;2023-04-03T05:37:20;3.70;59.80
74101;DHT22;62462;52.530;21.682;2023-04-03T05:39:46;3.80;59.60
74101;DHT22;62462;52.530;21.682;2023-04-03T05:42:12;3.90;59.20
74101;DHT22;62462;52.530;21.682;2023-04-03T05:44:38;4.00;59.40
74101;DHT22;62462;52.530;21.682;2023-04-03T05:47:04;4.10;58.60
74101;DHT22;62462;52.530;21.682;2023-04-03T05:49:30;4.10;58.40
74101;DHT22;62462;52.530;21.682;2023-04-03T05:51:56;4.10;58.20
74101;DHT22;62462;52.530;21.682;2023-04-03T05:54:25;4.10;58.10
74101;DHT22;62462;52.530;21.682;2023-04-03T05:56:52;4.10;57.90
74101;DHT22;62462;52.530;21.682;2023-04-03T05:59:20;4.20;58.00
74101;DHT22;62462;52.530;21.682;2023-04-03T06:01:46;4.30;57.10
74101;DHT22;62462;52.530;21.682;2023-04-03T06:04:12;4.30;57.40
74101;DHT22;62462;52.530;21.682;2023-04-03T06:06:50;4.30;57.60
74101;DHT22;62462;52.530;21.682;2023-04-03T06:09:19;4.40;57.70
74101;DHT22;62462;52.530;21.682;2023-04-03T06:11:45;4.40;57.20
74101;DHT22;62462;52.530;21.682;2023-04-03T06:14:11;4.40;57.50
74101;DHT22;62462;52.530;21.682;2023-04-03T06:16:38;4.50;57.20
74101;DHT22;62462;52.530;21.682;2023-04-03T06:19:05;4.50;56.70
74101;DHT22;62462;52.530;21.682;2023-04-03T06:21:31;4.60;57.30
74101;DHT22;62462;52.530;21.682;2023-04-03T06:23:57;4.80;57.10
74101;DHT22;62462;52.530;21.682;2023-04-03T06:26:23;5.00;57.40
74101;DHT22;62462;52.530;21.682;2023-04-03T06:28:49;5.10;57.20
74101;DHT22;62462;52.530;21.682;2023-04-03T06:31:15;5.20;55.30
74101;DHT22;62462;52.530;21.682;2023-04-03T06:33:41;5.20;55.80
74101;DHT22;62462;52.530;21.682;2023-04-03T06:36:09;5.30;55.80
74101;DHT22;62462;52.530;21.682;2023-04-03T06:38:35;5.30;55.10
74101;DHT22;62462;52.530;21.682;2023-04-03T06:41:01;5.30;55.30
74101;DHT22;62462;52.530;21.682;2023-04-03T06:43:27;5.40;55.70
74101;DHT22;62462;52.530;21.682;2023-04-03T06:45:53;5.60;55.50
74101;DHT22;62462;52.530;21.682;2023-04-03T06:48:19;5.70;53.90
74101;DHT22;62462;52.530;21.682;2023-04-03T06:50:45;5.70;54.20
74101;DHT22;62462;52.530;21.682;2023-04-03T06:53:11;5.80;54.50
74101;DHT22;62462;52.530;21.682;2023-04-03T06:55:37;5.90;54.20
74101;DHT22;62462;52.530;21.682;2023-04-03T06:58:04;6.00;54.40
74101;DHT22;62462;52.530;21.682;2023-04-03T07:00:30;6.10;54.50
74101;DHT22;62462;52.530;21.682;2023-04-03T07:02:56;6.30;54.20
74101;DHT22;62462;52.530;21.682;2023-04-03T07:05:23;6.30;52.50
74101;DHT22;62462;52.530;21.682;2023-04-03T07:07:50;6.30;52.10
74101;DHT22;62462;52.530;21.682;2023-04-03T07:10:16;6.40;52.30
74101;DHT22;62462;52.530;21.682;2023-04-03T07:12:42;6.40;51.40
74101;DHT22;62462;52.530;21.682;2023-04-03T07:15:09;6.40;51.30
74101;DHT22;62462;52.530;21.682;2023-04-03T07:17:35;6.40;51.60
74101;DHT22;62462;52.530;21.682;2023-04-03T07:20:02;6.50;52.10
74101;DHT22;62462;52.530;21.682;2023-04-03T07:22:29;6.60;52.40
74101;DHT22;62462;52.530;21.682;2023-04-03T07:24:55;6.70;51.20
74101;DHT22;62462;52.530;21.682;2023-04-03T07:27:21;6.90;51.90
74101;DHT22;62462;52.530;21.682;2023-04-03T07:29:47;7.00;50.50
74101;DHT22;62462;52.530;21.682;2023-04-03T07:32:16;7.00;49.80
74101;DHT22;62462;52.530;21.682;2023-04-03T07:34:42;7.10;49.70
74101;DHT22;62462;52.530;21.682;2023-04-03T07:37:07;7.20;49.60
74101;DHT22;62462;52.530;21.682;2023-04-03T07:39:34;7.30;49.50
74101;DHT22;62462;52.530;21.682;2023-04-03T07:42:00;7.30;48.90
74101;DHT22;62462;52.530;21.682;2023-04-03T07:44:27;7.20;48.90
74101;DHT22;62462;52.530;21.682;2023-04-03T07:46:54;7.30;50.20
74101;DHT22;62462;52.530;21.682;2023-04-03T07:49:21;7.50;49.40
74101;DHT22;62462;52.530;21.682;2023-04-03T07:51:50;7.50;48.40
74101;DHT22;62462;52.530;21.682;2023-04-03T07:54:16;7.60;49.00
74101;DHT22;62462;52.530;21.682;2023-04-03T07:56:42;7.70;49.70
74101;DHT22;62462;52.530;21.682;2023-04-03T07:59:09;7.90;48.10
74101;DHT22;62462;52.530;21.682;2023-04-03T08:01:36;8.00;48.20
74101;DHT22;62462;52.530;21.682;2023-04-03T08:04:01;8.10;47.70
74101;DHT22;62462;52.530;21.682;2023-04-03T08:06:28;8.10;47.70
74101;DHT22;62462;52.530;21.682;2023-04-03T08:08:55;8.20;47.20
74101;DHT22;62462;52.530;21.682;2023-04-03T08:11:21;8.30;47.90
74101;DHT22;62462;52.530;21.682;2023-04-03T08:13:47;8.40;47.60
74101;DHT22;62462;52.530;21.682;2023-04-03T08:16:18;8.50;46.70
74101;DHT22;62462;52.530;21.682;2023-04-03T08:18:45;8.50;45.90
74101;DHT22;62462;52.530;21.682;2023-04-03T08:21:12;8.60;45.90
74101;DHT22;62462;52.530;21.682;2023-04-03T08:23:39;8.60;46.00
74101;DHT22;62462;52.530;21.682;2023-04-03T08:26:11;8.60;45.30
74101;DHT22;62462;52.530;21.682;2023-04-03T08:28:38;8.70;45.40
74101;DHT22;62462;52.530;21.682;2023-04-03T08:31:06;8.80;45.50
74101;DHT22;62462;52.530;21.682;2023-04-03T08:33:33;8.90;45.40
74101;DHT22;62462;52.530;21.682;2023-04-03T08:36:01;8.80;44.50
74101;DHT22;62462;52.530;21.682;2023-04-03T08:38:27;8.90;44.90
74101;DHT22;62462;52.530;21.682;2023-04-03T08:43:53;8.90;45.60
74101;DHT22;62462;52.530;21.682;2023-04-03T08:46:24;9.00;44.70
74101;DHT22;62462;52.530;21.682;2023-04-03T08:48:53;9.10;43.10
74101;DHT22;62462;52.530;21.682;2023-04-03T08:51:20;9.10;44.10
74101;DHT22;62462;52.530;21.682;2023-04-03T08:54:04;9.10;43.50
74101;DHT22;62462;52.530;21.682;2023-04-03T08:56:33;9.20;44.60
74101;DHT22;62462;52.530;21.682;2023-04-03T08:59:05;9.30;44.50
74101;DHT22;62462;52.530;21.682;2023-04-03T09:01:36;9.40;43.40
74101;DHT22;62462;52.530;21.682;2023-04-03T09:04:10;9.50;43.20
74101;DHT22;62462;52.530;21.682;2023-04-03T09:06:38;9.60;43.80
74101;DHT22;62462;52.530;21.682;2023-04-03T09:09:36;9.80;44.60
74101;DHT22;62462;52.530;21.682;2023-04-03T09:12:27;10.10;43.70
74101;DHT22;62462;52.530;21.682;2023-04-03T09:20:25;9.90;41.50
74101;DHT22;62462;52.530;21.682;2023-04-03T09:22:53;9.60;41.60
74101;DHT22;62462;52.530;21.682;2023-04-03T09:25:29;9.30;42.60
74101;DHT22;62462;52.530;21.682;2023-04-03T09:28:00;9.50;44.80
74101;DHT22;62462;52.530;21.682;2023-04-03T09:30:27;9.60;42.30
74101;DHT22;62462;52.530;21.682;2023-04-03T09:32:55;9.40;41.80
74101;DHT22;62462;52.530;21.682;2023-04-03T09:35:28;9.20;41.60
74101;DHT22;62462;52.530;21.682;2023-04-03T09:42:53;9.20;42.50
74101;DHT22;62462;52.530;21.682;2023-04-03T09:45:25;9.50;42.00
74101;DHT22;62462;52.530;21.682;2023-04-03T09:50:56;10.10;40.50
74101;DHT22;62462;52.530;21.682;2023-04-03T09:53:44;9.80;40.00
74101;DHT22;62462;52.530;21.682;2023-04-03T09:58:53;9.60;41.50
74101;DHT22;62462;52.530;21.682;2023-04-03T10:01:57;9.60;40.80
74101;DHT22;62462;52.530;21.682;2023-04-03T10:04:23;9.90;42.40
74101;DHT22;62462;52.530;21.682;2023-04-03T10:06:54;10.10;40.50
74101;DHT22;62462;52.530;21.682;2023-04-03T10:12:08;10.30;40.60
74101;DHT22;62462;52.530;21.682;2023-04-03T10:14:41;10.30;39.10
74101;DHT22;62462;52.530;21.682;2023-04-03T10:25:43;9.90;40.50
74101;DHT22;62462;52.530;21.682;2023-04-03T10:31:25;10.10;39.70
74101;DHT22;62462;52.530;21.682;2023-04-03T10:37:01;10.20;38.90
74101;DHT22;62462;52.530;21.682;2023-04-03T10:45:28;9.40;40.00
74101;DHT22;62462;52.530;21.682;2023-04-03T10:48:09;9.60;41.50
74101;DHT22;62462;52.530;21.682;2023-04-03T10:54:00;10.20;40.00
74101;DHT22;62462;52.530;21.682;2023-04-03T10:56:51;10.10;38.80
74101;DHT22;62462;52.530;21.682;2023-04-03T10:59:35;9.60;37.80
74101;DHT22;62462;52.530;21.682;2023-04-03T11:02:18;9.20;38.50
74101;DHT22;62462;52.530;21.682;2023-04-03T11:04:51;9.10;40.10
74101;DHT22;62462;52.530;21.682;2023-04-03T11:07:26;9.20;41.30
74101;DHT22;62462;52.530;21.682;2023-04-03T11:10:40;9.50;41.80
74101;DHT22;62462;52.530;21.682;2023-04-03T11:16:18;9.40;39.10
74101;DHT22;62462;52.530;21.682;2023-04-03T11:19:03;9.40;40.80
74101;DHT22;62462;52.530;21.682;2023-04-03T11:21:39;9.60;41.10
74101;DHT22;62462;52.530;21.682;2023-04-03T11:24:25;9.70;40.00
74101;DHT22;62462;52.530;21.682;2023-04-03T11:26:54;10.00;40.40
74101;DHT22;62462;52.530;21.682;2023-04-03T11:29:28;10.40;39.80
74101;DHT22;62462;52.530;21.682;2023-04-03T11:34:48;10.00;39.10
74101;DHT22;62462;52.530;21.682;2023-04-03T11:37:33;9.80;40.00
74101;DHT22;62462;52.530;21.682;2023-04-03T11:40:07;9.70;39.30
74101;DHT22;62462;52.530;21.682;2023-04-03T11:42:38;9.60;38.70
74101;DHT22;62462;52.530;21.682;2023-04-03T11:48:04;10.10;39.10
74101;DHT22;62462;52.530;21.682;2023-04-03T11:50:45;10.00;38.30
74101;DHT22;62462;52.530;21.682;2023-04-03T11:58:34;10.90;38.10
74101;DHT22;62462;52.530;21.682;2023-04-03T12:01:10;10.70;36.50
74101;DHT22;62462;52.530;21.682;2023-04-03T12:21:20;10.60;35.80
74101;DHT22;62462;52.530;21.682;2023-04-03T12:27:11;10.90;39.50
74101;DHT22;62462;52.530;21.682;2023-04-03T12:46:11;10.60;36.80
74101;DHT22;62462;52.530;21.682;2023-04-03T12:48:57;10.40;36.10
74101;DHT22;62462;52.530;21.682;2023-04-03T12:54:16;9.70;37.00
74101;DHT22;62462;52.530;21.682;2023-04-03T12:56:44;9.50;37.70
74101;DHT22;62462;52.530;21.682;2023-04-03T12:59:25;9.60;39.50
74101;DHT22;62462;52.530;21.682;2023-04-03T13:01:59;9.70;37.80
74101;DHT22;62462;52.530;21.682;2023-04-03T13:04:27;9.70;37.70
74101;DHT22;62462;52.530;21.682;2023-04-03T13:06:53;9.70;38.40
74101;DHT22;62462;52.530;21.682;2023-04-03T13:14:22;9.70;37.80
74101;DHT22;62462;52.530;21.682;2023-04-03T13:20:34;9.50;38.40
74101;DHT22;62462;52.530;21.682;2023-04-03T13:23:12;9.50;38.60
74101;DHT22;62462;52.530;21.682;2023-04-03T13:25:42;9.60;38.70
74101;DHT22;62462;52.530;21.682;2023-04-03T13:28:12;9.60;38.10
74101;DHT22;62462;52.530;21.682;2023-04-03T13:30:39;9.60;38.00
74101;DHT22;62462;52.530;21.682;2023-04-03T13:33:20;9.70;38.70
74101;DHT22;62462;52.530;21.682;2023-04-03T13:35:47;9.60;38.00
74101;DHT22;62462;52.530;21.682;2023-04-03T13:40:57;9.30;38.50
74101;DHT22;62462;52.530;21.682;2023-04-03T13:43:33;9.40;39.10
74101;DHT22;62462;52.530;21.682;2023-04-03T13:46:24;9.50;38.30
74101;DHT22;62462;52.530;21.682;2023-04-03T13:48:53;9.70;39.30
74101;DHT22;62462;52.530;21.682;2023-04-03T13:51:27;9.80;38.10
74101;DHT22;62462;52.530;21.682;2023-04-03T14:01:37;9.80;39.10
74101;DHT22;62462;52.530;21.682;2023-04-03T14:04:21;9.80;38.00
74101;DHT22;62462;52.530;21.682;2023-04-03T14:06:48;9.70;37.90
74101;DHT22;62462;52.530;21.682;2023-04-03T14:09:16;9.70;38.70
74101;DHT22;62462;52.530;21.682;2023-04-03T14:11:42;9.70;37.90
74101;DHT22;62462;52.530;21.682;2023-04-03T14:14:18;9.60;38.60
74101;DHT22;62462;52.530;21.682;2023-04-03T14:16:51;9.60;38.90
74101;DHT22;62462;52.530;21.682;2023-04-03T14:19:24;9.60;38.60
74101;DHT22;62462;52.530;21.682;2023-04-03T14:21:52;9.50;38.60
74101;DHT22;62462;52.530;21.682;2023-04-03T14:24:19;9.40;38.10
74101;DHT22;62462;52.530;21.682;2023-04-03T14:26:47;9.20;38.10
74101;DHT22;62462;52.530;21.682;2023-04-03T14:29:14;9.10;38.60
74101;DHT22;62462;52.530;21.682;2023-04-03T14:31:42;9.00;38.90
74101;DHT22;62462;52.530;21.682;2023-04-03T14:34:10;8.90;39.10
74101;DHT22;62462;52.530;21.682;2023-04-03T14:36:37;8.90;39.30
74101;DHT22;62462;52.530;21.682;2023-04-03T14:39:06;8.90;39.90
74101;DHT22;62462;52.530;21.682;2023-04-03T14:41:33;9.00;40.20
74101;DHT22;62462;52.530;21.682;2023-04-03T14:43:58;9.00;39.70
74101;DHT22;62462;52.530;21.682;2023-04-03T14:46:35;9.00;39.90
74101;DHT22;62462;52.530;21.682;2023-04-03T14:49:03;8.90;39.20
74101;DHT22;62462;52.530;21.682;2023-04-03T14:51:33;8.80;40.10
74101;DHT22;62462;52.530;21.682;2023-04-03T14:53:59;8.80;40.00
74101;DHT22;62462;52.530;21.682;2023-04-03T14:56:28;8.80;39.80
74101;DHT22;62462;52.530;21.682;2023-04-03T14:58:59;8.70;39.50
74101;DHT22;62462;52.530;21.682;2023-04-03T15:01:27;8.70;39.50
74101;DHT22;62462;52.530;21.682;2023-04-03T15:03:53;8.80;39.80
74101;DHT22;62462;52.530;21.682;2023-04-03T15:06:19;8.80;39.70
74101;DHT22;62462;52.530;21.682;2023-04-03T15:08:47;8.80;39.50
74101;DHT22;62462;52.530;21.682;2023-04-03T15:11:13;8.70;39.70
74101;DHT22;62462;52.530;21.682;2023-04-03T15:13:40;8.70;39.50
74101;DHT22;62462;52.530;21.682;2023-04-03T15:16:16;8.60;39.60
74101;DHT22;62462;52.530;21.682;2023-04-03T15:18:43;8.60;39.50
74101;DHT22;62462;52.530;21.682;2023-04-03T15:21:09;8.60;38.90
74101;DHT22;62462;52.530;21.682;2023-04-03T15:23:35;8.50;38.80
74101;DHT22;62462;52.530;21.682;2023-04-03T15:26:01;8.40;38.90
74101;DHT22;62462;52.530;21.682;2023-04-03T15:28:31;8.40;39.50
74101;DHT22;62462;52.530;21.682;2023-04-03T15:30:59;8.40;39.80
74101;DHT22;62462;52.530;21.682;2023-04-03T15:33:25;8.30;40.10
74101;DHT22;62462;52.530;21.682;2023-04-03T15:35:51;8.30;40.10
74101;DHT22;62462;52.530;21.682;2023-04-03T15:38:17;8.30;40.60
74101;DHT22;62462;52.530;21.682;2023-04-03T15:40:43;8.30;40.10
74101;DHT22;62462;52.530;21.682;2023-04-03T15:43:09;8.30;40.30
74101;DHT22;62462;52.530;21.682;2023-04-03T15:45:37;8.30;40.60
74101;DHT22;62462;52.530;21.682;2023-04-03T15:48:04;8.20;41.30
74101;DHT22;62462;52.530;21.682;2023-04-03T15:50:31;8.20;40.30
74101;DHT22;62462;52.530;21.682;2023-04-03T15:52:57;8.10;40.30
74101;DHT22;62462;52.530;21.682;2023-04-03T15:55:28;8.10;40.30
74101;DHT22;62462;52.530;21.682;2023-04-03T15:57:56;8.10;40.60
74101;DHT22;62462;52.530;21.682;2023-04-03T16:00:24;8.00;40.50
74101;DHT22;62462;52.530;21.682;2023-04-03T16:02:55;8.00;40.80
74101;DHT22;62462;52.530;21.682;2023-04-03T16:05:23;8.10;41.40
74101;DHT22;62462;52.530;21.682;2023-04-03T16:07:49;8.10;41.20
74101;DHT22;62462;52.530;21.682;2023-04-03T16:10:17;8.10;41.50
74101;DHT22;62462;52.530;21.682;2023-04-03T16:12:44;8.00;41.60
74101;DHT22;62462;52.530;21.682;2023-04-03T16:15:10;8.00;41.60
74101;DHT22;62462;52.530;21.682;2023-04-03T16:17:37;8.00;41.80
74101;DHT22;62462;52.530;21.682;2023-04-03T16:20:05;8.00;42.20
74101;DHT22;62462;52.530;21.682;2023-04-03T16:22:32;8.10;41.90
74101;DHT22;62462;52.530;21.682;2023-04-03T16:24:58;8.10;41.90
74101;DHT22;62462;52.530;21.682;2023-04-03T16:27:24;8.10;41.90
74101;DHT22;62462;52.530;21.682;2023-04-03T16:29:54;8.10;42.00
74101;DHT22;62462;52.530;21.682;2023-04-03T16:32:21;8.10;41.90
74101;DHT22;62462;52.530;21.682;2023-04-03T16:34:47;8.00;41.70
74101;DHT22;62462;52.530;21.682;2023-04-03T16:37:13;8.00;41.80
74101;DHT22;62462;52.530;21.682;2023-04-03T16:39:40;7.90;42.00
74101;DHT22;62462;52.530;21.682;2023-04-03T16:42:05;7.90;42.30
74101;DHT22;62462;52.530;21.682;2023-04-03T16:44:33;7.90;42.30
74101;DHT22;62462;52.530;21.682;2023-04-03T16:46:58;7.80;42.60
74101;DHT22;62462;52.530;21.682;2023-04-03T16:49:24;7.80;42.60
74101;DHT22;62462;52.530;21.682;2023-04-03T16:51:50;7.70;42.40
74101;DHT22;62462;52.530;21.682;2023-04-03T16:54:17;7.70;42.60
74101;DHT22;62462;52.530;21.682;2023-04-03T16:56:43;7.70;42.70
74101;DHT22;62462;52.530;21.682;2023-04-03T16:59:10;7.70;42.50
74101;DHT22;62462;52.530;21.682;2023-04-03T17:01:36;7.60;42.60
74101;DHT22;62462;52.530;21.682;2023-04-03T17:04:01;7.60;42.70
74101;DHT22;62462;52.530;21.682;2023-04-03T17:06:27;7.60;43.00
74101;DHT22;62462;52.530;21.682;2023-04-03T17:08:53;7.50;42.80
74101;DHT22;62462;52.530;21.682;2023-04-03T17:11:20;7.40;42.70
74101;DHT22;62462;52.530;21.682;2023-04-03T17:13:47;7.40;43.10
74101;DHT22;62462;52.530;21.682;2023-04-03T17:16:14;7.40;43.10
74101;DHT22;62462;52.530;21.682;2023-04-03T17:18:42;7.40;43.20
74101;DHT22;62462;52.530;21.682;2023-04-03T17:21:11;7.40;42.90
74101;DHT22;62462;52.530;21.682;2023-04-03T17:23:39;7.40;43.20
74101;DHT22;62462;52.530;21.682;2023-04-03T17:26:09;7.40;43.10
74101;DHT22;62462;52.530;21.682;2023-04-03T17:28:35;7.40;43.30
74101;DHT22;62462;52.530;21.682;2023-04-03T17:31:03;7.30;42.90
74101;DHT22;62462;52.530;21.682;2023-04-03T17:33:29;7.30;42.90
74101;DHT22;62462;52.530;21.682;2023-04-03T17:36:00;7.20;42.90
74101;DHT22;62462;52.530;21.682;2023-04-03T17:38:30;7.20;43.10
74101;DHT22;62462;52.530;21.682;2023-04-03T17:40:57;7.20;44.30
74101;DHT22;62462;52.530;21.682;2023-04-03T17:43:23;7.20;43.40
74101;DHT22;62462;52.530;21.682;2023-04-03T17:45:49;7.20;43.30
74101;DHT22;62462;52.530;21.682;2023-04-03T17:48:15;7.20;43.40